Club Med II — FNIR — position and weather

sailwx.info

Track history (hours):
 
Tides and Currents Weather Stations Pressure Air Temp Water Temp Dewpoint Dewpoint Depression Visibility Wind Speed Wind Dir Waves Ship Positions

Club Med II

Operator: V.Ships Leisure S.A.M

Last reported at 2020-Mar-12 02:30 UTC. Time now 2020-Apr-05 23:07 UTC.
Position N 19°10' W 080°53'.
Warning: this ship's position is 24 days out of date.

Length 187 m; draft 5.3 m.

Type: Ship. MMSI: 227194000.

Date/timePositionNaut miles runAvg speedWind from/ knotsBaromVisibWave heightAir tempDewpointWater temp
2020-Mar-12 02:30N 19°10' W 080°53'2214.8
2020-Mar-12 01:00N 19°14' W 081°16'8 5.4
2020-Mar-11 23:29N 19°18' W 081°24'0 0.0
2020-Mar-11 19:56N 19°18' W 081°24'0 0.0
2020-Mar-11 18:43N 19°18' W 081°24'0 0.0
2020-Mar-11 18:25N 19°18' W 081°24'0 0.0
2020-Mar-11 16:43N 19°18' W 081°24'0 0.0
2020-Mar-11 14:52N 19°18' W 081°24'  
2020-Mar-06 22:09N 18°42' W 066°06'4815.4
2020-Mar-06 19:00N 18°33' W 065°16'1615.7
2020-Mar-06 18:01N 18°28' W 065°00'14 3.3
2020-Mar-06 13:54N 18°26' W 064°46'0 0.0
2020-Mar-06 09:24N 18°26' W 064°46'0 0.0
2020-Mar-06 08:24N 18°26' W 064°46'0 0.0
2020-Mar-06 07:00N 18°26' W 064°46'0 0.0
2020-Mar-06 05:06N 18°26' W 064°46'0 0.0
2020-Mar-05 23:50N 18°26' W 064°46'72 3.9
2020-Mar-05 05:09N 17°55' W 063°37'10 9.0
2020-Mar-05 04:00N 17°49' W 063°28'21 8.5
2020-Mar-05 01:30N 17°37' W 063°10'23 0.6
2020-Mar-03 11:26N 17°54' W 062°53'  
Track history (hours):
 
Tides and Currents Weather Stations Pressure Air Temp Water Temp Dewpoint Dewpoint Depression Visibility Wind Speed Wind Dir Waves Ship Positions

Club Med II

Operator: V.Ships Leisure S.A.M

Last reported at 2020-Mar-12 02:30 UTC. Time now 2020-Apr-05 23:07 UTC.
Position N 19°10' W 080°53'.
Warning: this ship's position is 24 days out of date.

Length 187 m; draft 5.3 m.

Type: Ship. MMSI: 227194000.

Date/timePositionNaut miles runAvg speedWind from/ knotsBaromVisibWave heightAir tempDewpointWater temp
2020-Mar-12 02:30N 19°10' W 080°53'2214.8
2020-Mar-12 01:00N 19°14' W 081°16'8 5.4
2020-Mar-11 23:29N 19°18' W 081°24'0 0.0
2020-Mar-11 19:56N 19°18' W 081°24'0 0.0
2020-Mar-11 18:43N 19°18' W 081°24'0 0.0
2020-Mar-11 18:25N 19°18' W 081°24'0 0.0
2020-Mar-11 16:43N 19°18' W 081°24'0 0.0
2020-Mar-11 14:52N 19°18' W 081°24'  
2020-Mar-06 22:09N 18°42' W 066°06'4815.4
2020-Mar-06 19:00N 18°33' W 065°16'1615.7
2020-Mar-06 18:01N 18°28' W 065°00'14 3.3
2020-Mar-06 13:54N 18°26' W 064°46'0 0.0
2020-Mar-06 09:24N 18°26' W 064°46'0 0.0
2020-Mar-06 08:24N 18°26' W 064°46'0 0.0
2020-Mar-06 07:00N 18°26' W 064°46'0 0.0
2020-Mar-06 05:06N 18°26' W 064°46'0 0.0
2020-Mar-05 23:50N 18°26' W 064°46'72 3.9
2020-Mar-05 05:09N 17°55' W 063°37'10 9.0
2020-Mar-05 04:00N 17°49' W 063°28'21 8.5
2020-Mar-05 01:30N 17°37' W 063°10'23 0.6
2020-Mar-03 11:26N 17°54' W 062°53'  

Dump ship's entire track history